createdAt,value
2017-10-29T00:00:06.570Z,78.20
2017-10-29T00:02:34.030Z,77.80
2017-10-29T00:05:01.521Z,77.80
2017-10-29T00:07:29.750Z,77.40
2017-10-29T00:09:57.246Z,77.30
2017-10-29T00:12:25.458Z,77.40
2017-10-29T00:14:52.913Z,77.30
2017-10-29T00:17:20.390Z,77.40
2017-10-29T00:19:47.892Z,77.60
2017-10-29T00:22:16.150Z,78.00
2017-10-29T00:24:44.365Z,77.80
2017-10-29T00:27:11.846Z,78.20
2017-10-29T00:29:39.301Z,78.40
2017-10-29T00:32:06.790Z,78.30
2017-10-29T00:34:34.277Z,78.50
2017-10-29T00:37:02.496Z,78.30
2017-10-29T00:39:29.949Z,78.20
2017-10-29T00:41:57.423Z,78.00
2017-10-29T00:44:24.878Z,77.80
2017-10-29T00:46:52.353Z,77.80
2017-10-29T00:49:19.866Z,78.00
2017-10-29T00:51:47.313Z,77.80
2017-10-29T00:54:15.558Z,78.10
2017-10-29T00:56:43.014Z,78.00
2017-10-29T00:59:10.481Z,78.30
2017-10-29T01:01:37.977Z,78.60
2017-10-29T01:04:05.421Z,78.80
2017-10-29T01:06:33.638Z,79.00
2017-10-29T01:09:01.119Z,79.00
2017-10-29T01:11:29.358Z,78.60
2017-10-29T01:13:56.846Z,78.60
2017-10-29T01:16:24.326Z,78.60
2017-10-29T01:18:51.788Z,78.70
2017-10-29T01:21:19.258Z,78.60
2017-10-29T01:23:47.516Z,78.80
2017-10-29T01:26:14.961Z,78.80
2017-10-29T01:28:43.413Z,78.90
2017-10-29T01:31:10.885Z,78.80
2017-10-29T01:33:38.341Z,78.70
2017-10-29T01:36:05.818Z,78.60
2017-10-29T01:38:33.270Z,78.60
2017-10-29T01:41:00.723Z,78.30
2017-10-29T01:43:28.198Z,78.30
2017-10-29T01:45:55.657Z,78.20
2017-10-29T01:48:23.129Z,78.00
2017-10-29T01:50:50.598Z,78.50
2017-10-29T01:53:18.850Z,77.60
2017-10-29T01:55:46.310Z,77.50
2017-10-29T01:58:13.767Z,76.80
2017-10-29T02:00:41.238Z,77.20
2017-10-29T02:03:08.693Z,76.90
2017-10-29T02:05:36.944Z,76.00
2017-10-29T02:08:04.395Z,76.00
2017-10-29T02:10:31.913Z,75.60
2017-10-29T02:12:59.369Z,76.30
2017-10-29T02:15:27.609Z,77.00
2017-10-29T02:17:55.090Z,77.00
2017-10-29T02:20:23.307Z,76.20
2017-10-29T02:22:50.782Z,76.20
2017-10-29T02:25:18.245Z,76.10
2017-10-29T02:27:45.725Z,75.50
2017-10-29T02:30:14.370Z,74.70
2017-10-29T02:32:41.852Z,74.70
2017-10-29T02:35:09.301Z,74.80
2017-10-29T02:37:36.770Z,74.90
2017-10-29T02:40:04.255Z,74.80
2017-10-29T02:42:32.508Z,74.20
2017-10-29T02:44:59.966Z,74.20
2017-10-29T02:47:27.421Z,73.50
2017-10-29T02:49:54.903Z,73.30
2017-10-29T02:52:23.138Z,72.80
2017-10-29T02:54:50.612Z,72.80
2017-10-29T02:57:18.060Z,72.70
2017-10-29T02:59:45.538Z,72.50
2017-10-29T03:02:13.507Z,72.50
2017-10-29T03:04:41.097Z,71.00
2017-10-29T03:07:08.618Z,71.50
2017-10-29T03:09:36.095Z,72.80
2017-10-29T03:12:03.551Z,73.30
2017-10-29T03:14:31.029Z,74.10
2017-10-29T03:16:58.490Z,75.20
2017-10-29T03:19:25.986Z,76.00
2017-10-29T03:21:53.446Z,76.50
2017-10-29T03:24:20.906Z,77.10
2017-10-29T03:26:48.448Z,77.60
2017-10-29T03:29:15.894Z,77.90
2017-10-29T03:31:43.366Z,77.90
2017-10-29T03:34:10.816Z,78.30
2017-10-29T03:36:38.310Z,78.60
2017-10-29T03:39:05.765Z,78.80
2017-10-29T03:41:33.229Z,79.10
2017-10-29T03:44:00.699Z,78.90
2017-10-29T03:46:28.176Z,78.60
2017-10-29T03:48:55.637Z,78.50
2017-10-29T03:51:23.107Z,77.90
2017-10-29T03:53:51.370Z,77.00
2017-10-29T03:56:18.826Z,77.00
2017-10-29T03:58:46.281Z,77.20
2017-10-29T04:01:13.755Z,77.00
2017-10-29T04:03:41.978Z,76.50
2017-10-29T04:06:09.459Z,76.50
2017-10-29T04:08:36.910Z,77.00
2017-10-29T04:11:04.375Z,76.80
2017-10-29T04:13:31.858Z,76.80
2017-10-29T04:15:59.343Z,76.10
2017-10-29T04:18:26.795Z,76.30
2017-10-29T04:20:54.237Z,76.20
2017-10-29T04:23:21.705Z,76.10
2017-10-29T04:25:49.163Z,76.00
2017-10-29T04:28:16.635Z,76.10
2017-10-29T04:30:44.204Z,76.20
2017-10-29T04:33:11.648Z,76.10
2017-10-29T04:35:39.123Z,76.30
2017-10-29T04:38:06.615Z,76.30
2017-10-29T04:40:34.078Z,76.40
2017-10-29T04:43:01.537Z,76.20
2017-10-29T04:45:29.026Z,75.90
2017-10-29T04:47:56.490Z,75.70
2017-10-29T04:50:23.952Z,75.10
2017-10-29T04:52:51.433Z,75.40
2017-10-29T04:55:18.890Z,74.50
2017-10-29T04:57:46.351Z,74.40
2017-10-29T05:00:13.879Z,73.90
2017-10-29T05:02:41.353Z,72.80
2017-10-29T05:05:08.837Z,73.40
2017-10-29T05:07:36.299Z,73.50
2017-10-29T05:10:03.754Z,71.40
2017-10-29T05:12:31.241Z,72.00
2017-10-29T05:14:58.714Z,70.90
2017-10-29T05:17:26.164Z,70.40
2017-10-29T05:19:53.633Z,70.40
2017-10-29T05:22:21.090Z,69.70
2017-10-29T05:24:48.569Z,68.10
2017-10-29T05:27:16.683Z,67.70
2017-10-29T05:29:44.182Z,66.90
2017-10-29T05:32:12.433Z,67.20
2017-10-29T05:34:39.893Z,67.00
2017-10-29T05:37:07.361Z,67.30
2017-10-29T05:39:34.837Z,67.80
2017-10-29T05:42:03.078Z,66.50
2017-10-29T05:44:30.549Z,66.50
2017-10-29T05:46:58.029Z,66.90
2017-10-29T05:49:26.286Z,67.10
2017-10-29T05:51:53.747Z,67.00
2017-10-29T05:54:21.230Z,66.20
2017-10-29T05:56:48.718Z,66.40
2017-10-29T05:59:16.210Z,65.60
2017-10-29T06:01:43.685Z,65.70
2017-10-29T06:04:11.144Z,66.10
2017-10-29T06:06:38.613Z,65.70
2017-10-29T06:09:06.856Z,63.90
2017-10-29T06:11:34.308Z,63.70
2017-10-29T06:14:01.785Z,63.60
2017-10-29T06:16:29.247Z,61.60
2017-10-29T06:18:56.737Z,62.10
2017-10-29T06:21:24.223Z,62.30
2017-10-29T06:23:51.678Z,62.40
2017-10-29T06:26:19.152Z,60.50
2017-10-29T06:28:46.681Z,60.70
2017-10-29T06:31:14.142Z,60.60
2017-10-29T06:33:41.617Z,59.60
2017-10-29T06:36:09.066Z,58.90
2017-10-29T06:38:36.547Z,58.90
2017-10-29T06:41:03.995Z,59.00
2017-10-29T06:43:31.481Z,58.10
2017-10-29T06:45:58.930Z,57.70
2017-10-29T06:48:26.397Z,58.50
2017-10-29T06:50:53.879Z,58.20
2017-10-29T06:53:21.359Z,58.10
2017-10-29T06:55:48.827Z,58.40
2017-10-29T06:58:16.306Z,58.50
2017-10-29T07:00:43.765Z,57.90
2017-10-29T07:03:11.215Z,57.90
2017-10-29T07:05:38.698Z,57.50
2017-10-29T07:08:06.154Z,57.70
2017-10-29T07:10:33.621Z,55.90
2017-10-29T07:13:01.077Z,56.80
2017-10-29T07:15:28.540Z,57.00
2017-10-29T07:17:56.019Z,56.70
2017-10-29T07:20:24.326Z,57.30
2017-10-29T07:22:51.809Z,57.30
2017-10-29T07:25:19.294Z,57.30
2017-10-29T07:27:47.891Z,56.70
2017-10-29T07:30:16.374Z,57.00
2017-10-29T07:32:44.762Z,56.90
2017-10-29T07:35:12.410Z,56.90
2017-10-29T07:37:40.171Z,57.00
2017-10-29T07:40:07.784Z,57.00
2017-10-29T07:42:35.401Z,56.90
2017-10-29T07:45:02.874Z,57.10
2017-10-29T07:47:30.563Z,57.10
2017-10-29T07:49:58.760Z,57.40
2017-10-29T07:52:26.344Z,57.50
2017-10-29T07:54:53.851Z,57.40
2017-10-29T07:57:21.529Z,57.20
2017-10-29T07:59:49.631Z,57.50
2017-10-29T08:02:17.422Z,57.00
2017-10-29T08:04:45.141Z,57.00
2017-10-29T08:07:12.633Z,57.00
2017-10-29T08:09:40.368Z,57.20
2017-10-29T08:12:07.865Z,57.10
2017-10-29T08:14:35.342Z,57.20
2017-10-29T08:17:03.129Z,56.60
2017-10-29T08:19:30.866Z,56.80
2017-10-29T08:21:59.117Z,56.30
2017-10-29T08:24:26.629Z,56.00
2017-10-29T08:26:54.125Z,54.90
2017-10-29T08:29:22.616Z,54.80
2017-10-29T08:31:50.184Z,54.80
2017-10-29T08:34:17.705Z,55.00
2017-10-29T08:36:45.709Z,54.90
2017-10-29T08:39:14.364Z,55.00
2017-10-29T08:41:41.973Z,55.00
2017-10-29T08:44:10.704Z,53.60
2017-10-29T08:46:39.191Z,53.90
2017-10-29T08:49:06.752Z,53.90
2017-10-29T08:51:35.090Z,53.90
2017-10-29T08:54:02.621Z,53.40
2017-10-29T08:56:33.803Z,52.70
2017-10-29T08:59:01.502Z,52.90
2017-10-29T09:01:29.255Z,51.90
2017-10-29T09:03:56.854Z,51.50
2017-10-29T09:06:24.333Z,51.60
2017-10-29T09:08:52.596Z,52.10
2017-10-29T09:11:21.091Z,52.10
2017-10-29T09:13:48.819Z,51.80
2017-10-29T09:16:17.134Z,52.60
2017-10-29T09:18:44.666Z,52.60
2017-10-29T09:21:12.993Z,53.10
2017-10-29T09:23:40.517Z,53.20
2017-10-29T09:26:08.801Z,55.90
2017-10-29T09:28:36.336Z,55.90
2017-10-29T09:31:03.977Z,56.30
2017-10-29T09:33:31.585Z,56.70
2017-10-29T09:35:59.433Z,56.60
2017-10-29T09:38:27.326Z,57.00
2017-10-29T09:40:55.651Z,57.20
2017-10-29T09:43:23.249Z,57.10
2017-10-29T09:45:51.218Z,57.30
2017-10-29T09:48:18.688Z,56.00
2017-10-29T09:50:46.161Z,56.00
2017-10-29T09:53:13.614Z,55.30
2017-10-29T09:55:41.089Z,55.40
2017-10-29T09:58:08.571Z,55.40
2017-10-29T10:00:36.089Z,55.70
2017-10-29T10:03:03.565Z,55.50
2017-10-29T10:05:31.818Z,53.70
2017-10-29T10:07:59.665Z,53.70
2017-10-29T10:10:27.921Z,53.00
2017-10-29T10:12:55.815Z,53.00
2017-10-29T10:15:23.461Z,53.00
2017-10-29T10:17:51.848Z,53.50
2017-10-29T10:20:19.368Z,54.30
2017-10-29T10:22:47.151Z,54.50
2017-10-29T10:25:14.606Z,54.10
2017-10-29T10:27:42.369Z,54.30
2017-10-29T10:30:09.931Z,54.70
2017-10-29T10:32:37.406Z,55.00
2017-10-29T10:35:04.938Z,55.10
2017-10-29T10:37:32.636Z,54.70
2017-10-29T10:40:00.155Z,55.00
2017-10-29T10:42:27.796Z,55.00
2017-10-29T10:44:56.111Z,55.20
2017-10-29T10:47:23.943Z,55.20
2017-10-29T10:49:52.470Z,55.50
2017-10-29T10:52:20.245Z,55.80
2017-10-29T10:54:48.681Z,56.30
2017-10-29T10:57:16.336Z,56.70
2017-10-29T10:59:44.127Z,57.00
2017-10-29T11:02:13.636Z,57.50
2017-10-29T11:04:43.299Z,57.50
2017-10-29T11:07:10.937Z,57.50
2017-10-29T11:09:39.395Z,57.40
2017-10-29T11:12:07.050Z,57.90
2017-10-29T11:14:37.975Z,57.90
2017-10-29T11:17:05.426Z,58.30
2017-10-29T11:19:33.115Z,58.10
2017-10-29T11:22:00.943Z,58.20
2017-10-29T11:24:28.778Z,58.00
2017-10-29T11:26:56.237Z,57.80
2017-10-29T11:29:23.897Z,57.50
2017-10-29T11:31:51.720Z,57.50
2017-10-29T11:34:20.048Z,57.50
2017-10-29T11:36:47.867Z,57.40
2017-10-29T11:39:15.341Z,57.30
2017-10-29T11:41:43.329Z,57.30
2017-10-29T11:44:10.985Z,57.40
2017-10-29T11:46:38.460Z,57.50
2017-10-29T11:49:05.955Z,57.60
2017-10-29T11:51:33.458Z,56.90
2017-10-29T11:54:00.961Z,56.90
2017-10-29T11:56:28.594Z,56.30
2017-10-29T11:58:56.211Z,55.80
2017-10-29T12:01:24.178Z,55.60
2017-10-29T12:03:52.280Z,55.60
2017-10-29T12:06:19.962Z,55.70
2017-10-29T12:08:48.482Z,56.70
2017-10-29T12:11:16.017Z,56.30
2017-10-29T12:13:44.332Z,56.10
2017-10-29T12:16:12.576Z,55.00
2017-10-29T12:18:40.157Z,55.00
2017-10-29T12:21:07.878Z,54.90
2017-10-29T12:23:35.392Z,54.40
2017-10-29T12:26:03.849Z,54.00
2017-10-29T12:28:31.674Z,54.00
2017-10-29T12:30:59.196Z,53.80
2017-10-29T12:33:26.837Z,53.20
2017-10-29T12:35:54.644Z,52.30
2017-10-29T12:38:22.122Z,51.80
2017-10-29T12:40:49.892Z,50.00
2017-10-29T12:43:17.380Z,49.60
2017-10-29T12:45:44.908Z,50.70
2017-10-29T12:48:12.721Z,50.20
2017-10-29T12:50:40.190Z,49.90
2017-10-29T12:53:08.738Z,50.40
2017-10-29T12:55:36.287Z,50.30
2017-10-29T12:58:04.070Z,50.30
2017-10-29T13:00:31.929Z,50.70
2017-10-29T13:02:59.412Z,50.90
2017-10-29T13:05:26.862Z,51.10
2017-10-29T13:07:55.886Z,51.20
2017-10-29T13:10:23.546Z,51.20
2017-10-29T13:12:51.167Z,51.60
2017-10-29T13:15:18.625Z,51.80
2017-10-29T13:17:48.925Z,50.50
2017-10-29T13:20:23.067Z,50.40
2017-10-29T13:22:50.680Z,50.20
2017-10-29T13:25:18.221Z,50.10
2017-10-29T13:27:45.904Z,50.30
2017-10-29T13:30:13.498Z,50.10
2017-10-29T13:32:41.170Z,50.00
2017-10-29T13:35:09.079Z,51.30
2017-10-29T13:37:36.678Z,51.90
2017-10-29T13:40:04.202Z,51.40
2017-10-29T13:42:31.839Z,49.30
2017-10-29T13:45:00.203Z,47.50
2017-10-29T13:47:27.880Z,47.30
2017-10-29T13:49:55.729Z,47.00
2017-10-29T13:52:23.454Z,42.30
2017-10-29T13:54:50.976Z,42.30
2017-10-29T13:57:18.546Z,39.40
2017-10-29T13:59:46.119Z,38.80
2017-10-29T14:02:15.373Z,37.20
2017-10-29T14:04:43.116Z,37.00
2017-10-29T14:07:13.939Z,36.60
2017-10-29T14:09:41.649Z,34.60
2017-10-29T14:12:10.095Z,33.90
2017-10-29T14:14:37.775Z,33.90
2017-10-29T14:17:05.302Z,34.30
2017-10-29T14:19:32.902Z,33.60
2017-10-29T14:22:00.409Z,34.10
2017-10-29T14:24:27.949Z,34.80
2017-10-29T14:26:56.408Z,34.20
2017-10-29T14:29:23.978Z,33.80
2017-10-29T14:31:51.510Z,34.70
2017-10-29T14:34:19.038Z,35.40
2017-10-29T14:36:46.630Z,35.00
2017-10-29T14:39:14.279Z,36.00
2017-10-29T14:41:41.992Z,37.60
2017-10-29T14:44:09.686Z,38.40
2017-10-29T14:46:37.230Z,38.60
2017-10-29T14:49:06.296Z,39.60
2017-10-29T14:51:34.576Z,39.60
2017-10-29T14:54:02.229Z,40.40
2017-10-29T14:56:29.793Z,41.80
2017-10-29T14:58:57.499Z,42.90
2017-10-29T15:01:25.110Z,43.90
2017-10-29T15:03:52.805Z,44.80
2017-10-29T15:06:21.091Z,46.20
2017-10-29T15:08:48.734Z,46.20
2017-10-29T15:11:16.319Z,46.60
2017-10-29T15:13:44.940Z,46.90
2017-10-29T15:16:12.485Z,46.80
2017-10-29T15:18:40.209Z,47.00
2017-10-29T15:21:07.742Z,47.20
2017-10-29T15:23:35.265Z,47.10
2017-10-29T15:26:02.791Z,47.50
2017-10-29T15:28:30.319Z,47.10
2017-10-29T15:30:57.802Z,46.90
2017-10-29T15:33:25.315Z,46.80
2017-10-29T15:35:52.797Z,46.80
2017-10-29T15:38:20.289Z,46.70
2017-10-29T15:40:47.750Z,46.80
2017-10-29T15:43:15.221Z,46.70
2017-10-29T15:45:43.469Z,47.10
2017-10-29T15:48:10.928Z,47.10
2017-10-29T15:50:38.409Z,47.30
2017-10-29T15:53:06.622Z,48.00
2017-10-29T15:55:34.077Z,47.90
2017-10-29T15:58:01.562Z,48.30
2017-10-29T16:00:29.014Z,48.40
2017-10-29T16:02:56.471Z,48.50
2017-10-29T16:05:23.962Z,48.80
2017-10-29T16:07:51.415Z,49.30
2017-10-29T16:10:18.943Z,49.50
2017-10-29T16:12:46.405Z,49.60
2017-10-29T16:15:13.854Z,49.80
2017-10-29T16:17:41.338Z,50.00
2017-10-29T16:20:08.789Z,50.40
2017-10-29T16:22:36.260Z,50.60
2017-10-29T16:25:03.726Z,50.80
2017-10-29T16:27:31.218Z,50.90
2017-10-29T16:29:59.553Z,51.70
2017-10-29T16:32:27.000Z,51.20
2017-10-29T16:34:54.461Z,51.40
2017-10-29T16:37:21.942Z,51.70
2017-10-29T16:39:49.443Z,51.70
2017-10-29T16:42:16.900Z,51.80
2017-10-29T16:44:44.362Z,51.90
2017-10-29T16:47:11.857Z,52.00
2017-10-29T16:49:39.315Z,52.20
2017-10-29T16:52:06.768Z,52.30
2017-10-29T16:54:34.241Z,52.30
2017-10-29T16:57:01.738Z,52.40
2017-10-29T16:59:30.037Z,52.50
2017-10-29T17:01:57.495Z,52.50
2017-10-29T17:04:24.970Z,52.50
2017-10-29T17:06:52.469Z,52.70
2017-10-29T17:09:19.926Z,53.50
2017-10-29T17:11:48.149Z,53.40
2017-10-29T17:14:15.633Z,53.30
2017-10-29T17:16:43.147Z,53.50
2017-10-29T17:19:10.634Z,53.70
2017-10-29T17:21:38.089Z,54.00
2017-10-29T17:24:05.582Z,54.20
2017-10-29T17:26:33.035Z,54.40
2017-10-29T17:29:00.498Z,54.60
2017-10-29T17:31:27.994Z,54.80
2017-10-29T17:33:55.454Z,54.80
2017-10-29T17:36:22.905Z,55.00
2017-10-29T17:38:50.482Z,55.00
2017-10-29T17:41:17.937Z,55.20
2017-10-29T17:43:45.430Z,55.30
2017-10-29T17:46:12.892Z,55.40
2017-10-29T17:48:40.363Z,55.50
2017-10-29T17:51:07.861Z,55.50
2017-10-29T17:53:35.313Z,55.80
2017-10-29T17:56:02.773Z,55.90
2017-10-29T17:58:31.300Z,56.40
2017-10-29T18:00:58.762Z,56.10
2017-10-29T18:03:27.009Z,56.30
2017-10-29T18:05:54.469Z,56.30
2017-10-29T18:08:21.939Z,56.40
2017-10-29T18:10:49.414Z,56.40
2017-10-29T18:13:17.637Z,56.50
2017-10-29T18:15:45.124Z,56.40
2017-10-29T18:18:12.605Z,56.60
2017-10-29T18:20:40.066Z,56.50
2017-10-29T18:23:07.522Z,56.70
2017-10-29T18:25:35.777Z,56.90
2017-10-29T18:28:03.230Z,56.80
2017-10-29T18:30:32.018Z,56.90
2017-10-29T18:32:59.497Z,56.90
2017-10-29T18:35:26.978Z,56.90
2017-10-29T18:37:54.428Z,57.00
2017-10-29T18:40:21.881Z,57.10
2017-10-29T18:42:49.345Z,58.00
2017-10-29T18:45:16.817Z,57.90
2017-10-29T18:47:44.294Z,58.00
2017-10-29T18:50:11.777Z,58.00
2017-10-29T18:52:39.253Z,58.10
2017-10-29T18:55:07.509Z,58.50
2017-10-29T18:57:34.989Z,58.40
2017-10-29T19:00:02.499Z,58.40
2017-10-29T19:02:30.709Z,58.60
2017-10-29T19:04:58.189Z,58.60
2017-10-29T19:07:25.661Z,58.60
2017-10-29T19:09:53.150Z,58.60
2017-10-29T19:12:21.369Z,58.70
2017-10-29T19:14:48.837Z,58.70
2017-10-29T19:17:16.318Z,58.80
2017-10-29T19:19:43.774Z,58.90
2017-10-29T19:22:11.229Z,58.90
2017-10-29T19:24:38.721Z,59.00
2017-10-29T19:27:06.929Z,59.10
2017-10-29T19:29:34.446Z,59.10
2017-10-29T19:32:03.093Z,59.30
2017-10-29T19:34:30.552Z,59.30
2017-10-29T19:36:57.993Z,59.30
2017-10-29T19:39:25.562Z,59.30
2017-10-29T19:41:53.010Z,59.40
2017-10-29T19:44:20.498Z,59.40
2017-10-29T19:46:48.250Z,59.50
2017-10-29T19:49:15.902Z,59.60
2017-10-29T19:51:43.717Z,59.70
2017-10-29T19:54:11.189Z,59.70
2017-10-29T19:56:38.673Z,59.80
2017-10-29T19:59:06.217Z,59.90
2017-10-29T20:01:33.656Z,59.90
2017-10-29T20:04:01.882Z,60.00
2017-10-29T20:06:29.352Z,59.90
2017-10-29T20:08:56.809Z,60.70
2017-10-29T20:11:24.287Z,59.90
2017-10-29T20:13:51.955Z,60.00
2017-10-29T20:16:20.439Z,60.20
2017-10-29T20:18:48.007Z,60.20
2017-10-29T20:21:15.568Z,60.30
2017-10-29T20:23:43.866Z,60.50
2017-10-29T20:26:11.530Z,60.50
2017-10-29T20:28:39.589Z,60.70
2017-10-29T20:31:07.402Z,60.70
2017-10-29T20:33:34.969Z,60.70
2017-10-29T20:36:02.462Z,60.70
2017-10-29T20:38:30.717Z,60.90
2017-10-29T20:40:58.169Z,60.90
2017-10-29T20:43:25.645Z,60.90
2017-10-29T20:45:54.316Z,61.00
2017-10-29T20:48:23.264Z,60.90
2017-10-29T20:50:50.702Z,60.90
2017-10-29T20:53:19.189Z,60.70
2017-10-29T20:55:47.418Z,60.70
2017-10-29T20:58:16.729Z,60.90
2017-10-29T21:00:44.945Z,60.70
2017-10-29T21:03:13.185Z,60.80
2017-10-29T21:05:41.084Z,60.80
2017-10-29T21:08:08.568Z,61.00
2017-10-29T21:10:36.037Z,61.10
2017-10-29T21:13:04.266Z,61.00
2017-10-29T21:15:32.490Z,61.30
2017-10-29T21:17:59.998Z,61.30
2017-10-29T21:20:28.535Z,61.40
2017-10-29T21:22:55.990Z,61.40
2017-10-29T21:25:23.466Z,61.40
2017-10-29T21:27:50.966Z,61.30
2017-10-29T21:30:18.426Z,61.30
2017-10-29T21:32:45.914Z,61.30
2017-10-29T21:35:13.389Z,61.10
2017-10-29T21:37:41.080Z,61.20
2017-10-29T21:40:08.535Z,61.30
2017-10-29T21:42:36.002Z,61.30
2017-10-29T21:45:03.468Z,61.40
2017-10-29T21:47:31.686Z,61.50
2017-10-29T21:49:59.229Z,61.50
2017-10-29T21:52:26.738Z,61.50
2017-10-29T21:54:54.189Z,61.50
2017-10-29T21:57:21.646Z,61.50
2017-10-29T21:59:49.106Z,61.40
2017-10-29T22:02:16.557Z,61.50
2017-10-29T22:04:44.034Z,61.50
2017-10-29T22:07:11.515Z,61.70
2017-10-29T22:09:38.991Z,61.80
2017-10-29T22:12:07.211Z,61.70
2017-10-29T22:14:35.034Z,61.70
2017-10-29T22:17:02.494Z,61.60
2017-10-29T22:19:29.938Z,61.70
2017-10-29T22:21:58.184Z,61.80
2017-10-29T22:24:25.684Z,61.70
2017-10-29T22:26:53.174Z,61.90
2017-10-29T22:29:20.649Z,61.80
2017-10-29T22:31:48.138Z,62.00
2017-10-29T22:34:15.596Z,61.90
2017-10-29T22:36:43.049Z,61.80
2017-10-29T22:39:10.543Z,61.80
2017-10-29T22:41:38.110Z,62.10
2017-10-29T22:44:05.574Z,62.30
2017-10-29T22:46:33.059Z,62.30
2017-10-29T22:49:00.517Z,62.40
2017-10-29T22:51:28.018Z,62.30
2017-10-29T22:53:56.225Z,62.60
2017-10-29T22:56:23.679Z,62.50
2017-10-29T22:58:51.171Z,62.50
2017-10-29T23:01:18.630Z,62.60
2017-10-29T23:03:46.077Z,62.70
2017-10-29T23:06:25.347Z,62.90
2017-10-29T23:08:55.473Z,63.90
2017-10-29T23:11:23.686Z,63.10
2017-10-29T23:13:51.163Z,63.10
2017-10-29T23:16:18.618Z,63.10
2017-10-29T23:18:46.140Z,63.20
2017-10-29T23:21:13.601Z,63.20
2017-10-29T23:23:41.078Z,63.20
2017-10-29T23:26:08.573Z,63.30
2017-10-29T23:28:36.032Z,63.40
2017-10-29T23:31:03.490Z,63.40
2017-10-29T23:33:30.957Z,63.50
2017-10-29T23:35:58.423Z,63.50
2017-10-29T23:38:26.666Z,63.70
2017-10-29T23:40:54.133Z,63.40
2017-10-29T23:43:21.598Z,63.50
2017-10-29T23:45:49.077Z,63.60
2017-10-29T23:48:16.534Z,63.70
2017-10-29T23:50:44.755Z,63.90
2017-10-29T23:53:12.225Z,63.90
2017-10-29T23:55:39.709Z,64.00
2017-10-29T23:58:07.169Z,64.00
